Time;durP1;ratioP1;P1;durP2;ratioP2;P2;SDS_P1;SDS_P2;PMS_P1;PMS_P2;Temp;Humidity;BMP_temperature;BMP_pressure;BME280_temperature;BME280_humidity;BME280_pressure;Samples;Min_cycle;Max_cycle;Signal;HPM_P1;HPM_P2
2023/11/24 00:00:12;;;;;;;;;59.50;45.00;;;;;1.42;100.00;98882.94;6275932;20;2496289;-42
2023/11/24 00:02:41;;;;;;;;;65.50;48.00;;;;;1.55;100.00;98878.03;6279005;20;2876375;-43
2023/11/24 00:05:10;;;;;;;;;61.50;47.50;;;;;1.63;100.00;98881.25;6280071;20;2865938;-44
2023/11/24 00:07:40;;;;;;;;;67.33;48.00;;;;;1.51;100.00;98869.38;6280194;20;2877456;-44
2023/11/24 00:10:09;;;;;;;;;57.00;47.00;;;;;1.45;100.00;98858.13;6312310;20;2842978;-44
2023/11/24 00:12:38;;;;;;;;;61.00;44.00;;;;;1.67;100.00;98839.69;6279173;20;2865925;-44
2023/11/24 00:15:07;;;;;;;;;52.00;43.50;;;;;1.37;100.00;98841.69;6280093;20;2859624;-46
2023/11/24 00:17:39;;;;;;;;;60.00;41.67;;;;;1.90;100.00;98846.72;6279954;20;2883774;-44
2023/11/24 00:20:11;;;;;;;;;49.00;44.50;;;;;1.88;100.00;98830.88;6308694;20;2490975;-45
2023/11/24 00:22:40;;;;;;;;;48.00;41.50;;;;;1.66;100.00;98828.22;6278655;20;2845600;-44
2023/11/24 00:25:09;;;;;;;;;62.00;45.67;;;;;1.77;100.00;98817.22;6280535;20;2874284;-44
2023/11/24 00:27:39;;;;;;;;;96.33;71.33;;;;;1.74;100.00;98814.72;6311227;20;3661087;-44
2023/11/24 00:30:09;;;;;;;;;94.67;71.67;;;;;1.68;100.00;98814.94;6278665;20;3659657;-44
2023/11/24 00:32:39;;;;;;;;;87.67;67.33;;;;;1.05;100.00;98802.34;6308618;20;3622215;-44
2023/11/24 00:35:10;;;;;;;;;81.33;61.33;;;;;1.37;100.00;98800.28;6311310;20;3635775;-45
2023/11/24 00:37:39;;;;;;;;;57.33;33.00;;;;;1.20;100.00;98802.69;6310295;20;2887985;-46
2023/11/24 00:40:14;;;;;;;;;78.67;58.00;;;;;1.13;100.00;98801.19;6312638;20;3649211;-44
2023/11/24 00:42:44;;;;;;;;;77.00;54.00;;;;;1.65;100.00;98788.59;6308810;20;3633090;-45
2023/11/24 00:45:13;;;;;;;;;64.00;51.00;;;;;1.79;100.00;98785.38;6312269;20;2864923;-44
2023/11/24 00:47:42;;;;;;;;;67.00;53.00;;;;;1.95;100.00;98771.50;6280109;20;2860827;-45
2023/11/24 00:50:11;;;;;;;;;62.00;51.00;;;;;2.28;100.00;98764.84;6279490;20;2859720;-45
2023/11/24 00:52:40;;;;;;;;;67.50;52.00;;;;;2.40;100.00;98746.63;6276096;20;2860816;-44
2023/11/24 00:55:09;;;;;;;;;67.00;50.50;;;;;2.29;100.00;98738.28;6279529;20;2877361;-47
2023/11/24 00:57:38;;;;;;;;;65.00;49.50;;;;;2.27;100.00;98734.84;6279837;20;2869136;-44
2023/11/24 01:00:08;;;;;;;;;63.67;47.00;;;;;2.29;100.00;98738.28;6279447;20;2900311;-46
2023/11/24 01:02:37;;;;;;;;;65.00;49.50;;;;;2.41;100.00;98737.75;6306786;20;2879448;-46
2023/11/24 01:05:09;;;;;;;;;67.67;50.00;;;;;2.36;100.00;98734.44;6280423;20;2877439;-44
2023/11/24 01:07:38;;;;;;;;;61.00;44.00;;;;;2.46;100.00;98739.34;6311327;20;2869089;-47
2023/11/24 01:10:08;;;;;;;;;59.50;47.50;;;;;2.34;100.00;98735.41;6279495;20;2860124;-46
2023/11/24 01:12:36;;;;;;;;;54.50;43.50;;;;;2.38;100.00;98735.22;6274365;20;2495053;-45
2023/11/24 01:15:08;;;;;;;;;66.00;48.50;;;;;2.49;100.00;98736.56;6280573;20;2876802;-45
2023/11/24 01:17:38;;;;;;;;;71.00;53.33;;;;;2.47;100.00;98728.66;6279149;20;3627317;-46
2023/11/24 01:20:11;;;;;;;;;70.67;53.67;;;;;2.57;100.00;98731.78;6316874;20;2879519;-45
2023/11/24 01:22:44;;;;;;;;;61.67;40.00;;;;;2.57;100.00;98715.88;6314385;20;3631657;-46
2023/11/24 01:25:14;;;;;;;;;70.33;51.67;;;;;2.69;100.00;98725.06;6316184;20;2870137;-46
2023/11/24 01:27:44;;;;;;;;;76.67;55.00;;;;;2.67;100.00;98711.88;6311504;20;3642088;-45
2023/11/24 01:30:15;;;;;;;;;66.67;50.67;;;;;2.51;100.00;98700.25;6315480;20;2876541;-44
2023/11/24 01:32:44;;;;;;;;;74.00;54.67;;;;;2.54;100.00;98697.47;6314065;20;3637945;-44
2023/11/24 01:35:13;;;;;;;;;63.50;49.00;;;;;2.56;100.00;98699.13;6314789;20;2859691;-45
2023/11/24 01:37:42;;;;;;;;;59.00;47.50;;;;;2.63;100.00;98684.69;6281686;20;2500414;-45
2023/11/24 01:40:12;;;;;;;;;65.67;50.33;;;;;2.62;100.00;98672.34;6284341;20;2880599;-45
2023/11/24 01:42:42;;;;;;;;;69.33;52.00;;;;;2.62;100.00;98663.53;6313418;20;3637834;-44
2023/11/24 01:45:12;;;;;;;;;73.33;54.00;;;;;2.59;100.00;98645.97;6315942;20;2889017;-45
2023/11/24 01:47:41;;;;;;;;;69.33;54.00;;;;;2.58;100.00;98638.09;6313543;20;2881553;-45
2023/11/24 01:50:11;;;;;;;;;66.00;52.00;;;;;2.61;100.00;98628.22;6316259;20;2880575;-44
2023/11/24 01:52:43;;;;;;;;;69.67;52.00;;;;;2.79;100.00;98615.91;6310080;20;2887908;-44
2023/11/24 01:55:13;;;;;;;;;71.67;49.00;;;;;2.75;100.00;98609.03;6312105;20;2884767;-45
2023/11/24 01:57:42;;;;;;;;;71.50;50.50;;;;;2.71;100.00;98591.53;6314616;20;2874233;-44
2023/11/24 02:00:13;;;;;;;;;67.33;53.33;;;;;2.81;100.00;98592.81;6279280;20;2878457;-45
2023/11/24 02:02:44;;;;;;;;;73.33;54.67;;;;;2.80;100.00;98599.06;6310616;20;2869088;-44
2023/11/24 02:05:14;;;;;;;;;78.67;56.33;;;;;2.77;100.00;98593.91;6316019;20;3638828;-47
2023/11/24 02:07:45;;;;;;;;;63.67;51.00;;;;;2.78;100.00;98586.81;6314300;20;2866965;-45
2023/11/24 02:10:16;;;;;;;;;68.67;49.00;;;;;2.85;100.00;98573.19;6314455;20;3641995;-44
2023/11/24 02:12:45;;;;;;;;;73.00;51.67;;;;;2.95;100.00;98583.34;6312431;20;3644427;-45
2023/11/24 02:15:15;;;;;;;;;69.33;50.00;;;;;3.03;100.00;98587.38;6313722;20;3645176;-45
2023/11/24 02:17:45;;;;;;;;;68.33;50.67;;;;;3.23;100.00;98578.41;6314415;20;3634781;-44
2023/11/24 02:20:16;;;;;;;;;73.33;54.00;;;;;3.16;100.00;98571.72;6314987;20;3640911;-45
2023/11/24 02:22:45;;;;;;;;;70.00;50.33;;;;;3.22;100.00;98562.59;6312725;20;3632598;-44
2023/11/24 02:25:15;;;;;;;;;60.00;47.50;;;;;3.17;100.00;98556.66;6313542;20;2869147;-47
2023/11/24 02:27:44;;;;;;;;;65.00;48.00;;;;;3.18;100.00;98553.06;6279497;20;2874338;-45
2023/11/24 02:30:13;;;;;;;;;63.67;51.33;;;;;3.20;100.00;98552.03;6281272;20;2871118;-46
2023/11/24 02:32:44;;;;;;;;;68.33;48.33;;;;;3.18;100.00;98556.56;6312587;20;2882598;-47
2023/11/24 02:35:13;;;;;;;;;62.00;49.50;;;;;3.33;100.00;98556.75;6313177;20;2855523;-43
2023/11/24 02:37:42;;;;;;;;;70.33;52.00;;;;;3.39;100.00;98551.13;6281057;20;3630491;-45
2023/11/24 02:40:12;;;;;;;;;67.33;52.00;;;;;3.41;100.00;98543.94;6313790;20;2872297;-45
2023/11/24 02:42:42;;;;;;;;;72.33;53.00;;;;;3.37;100.00;98537.06;6311490;20;3625283;-45
2023/11/24 02:45:11;;;;;;;;;65.00;50.50;;;;;3.47;100.00;98533.00;6314439;20;2864847;-45
2023/11/24 02:47:41;;;;;;;;;66.33;48.67;;;;;3.23;100.00;98513.91;6281695;20;3648158;-44
2023/11/24 02:50:12;;;;;;;;;68.00;51.00;;;;;3.41;100.00;98512.13;6313209;20;2878508;-44
2023/11/24 02:52:42;;;;;;;;;69.33;53.00;;;;;3.26;100.00;98513.75;6312371;20;3620092;-46
2023/11/24 02:55:13;;;;;;;;;73.00;52.00;;;;;3.28;100.00;98518.03;6315076;20;3648175;-45
2023/11/24 02:57:43;;;;;;;;;70.33;50.67;;;;;3.25;100.00;98518.19;6312109;20;3645056;-45
2023/11/24 03:00:13;;;;;;;;;65.33;51.33;;;;;3.39;100.00;98501.56;6308428;20;2876551;-44
2023/11/24 03:02:44;;;;;;;;;67.00;50.00;;;;;3.13;100.00;98486.97;6311351;20;2883813;-41
2023/11/24 03:05:15;;;;;;;;;63.67;47.33;;;;;3.10;100.00;98479.19;6312876;20;3626304;-45
2023/11/24 03:07:45;;;;;;;;;79.67;57.67;;;;;3.17;100.00;98474.44;6314419;20;3644050;-43
2023/11/24 03:10:14;;;;;;;;;74.33;54.00;;;;;2.95;100.00;98477.31;6314070;20;2898324;-43
2023/11/24 03:12:44;;;;;;;;;79.00;55.33;;;;;2.95;100.00;98467.59;6311337;20;3644183;-45
2023/11/24 03:15:14;;;;;;;;;71.67;56.33;;;;;2.88;100.00;98452.91;6310639;20;3631517;-43
2023/11/24 03:17:44;;;;;;;;;75.00;53.00;;;;;2.98;100.00;98445.38;6310617;20;3635788;-43
2023/11/24 03:20:13;;;;;;;;;63.00;50.50;;;;;2.89;100.00;98451.13;6313058;20;2869025;-44
2023/11/24 03:22:43;;;;;;;;;65.00;49.00;;;;;2.92;100.00;98456.25;6276862;20;2876384;-43
2023/11/24 03:25:13;;;;;;;;;69.00;52.33;;;;;2.93;100.00;98447.38;6308172;20;2881718;-44
2023/11/24 03:27:43;;;;;;;;;65.00;51.33;;;;;2.97;100.00;98443.63;6311486;20;2881737;-45
2023/11/24 03:30:13;;;;;;;;;63.00;50.33;;;;;2.88;100.00;98438.81;6313582;20;2880726;-39
2023/11/24 03:32:43;;;;;;;;;68.00;51.33;;;;;2.87;100.00;98440.59;6310066;20;2879666;-40
2023/11/24 03:35:13;;;;;;;;;60.00;42.00;;;;;2.90;100.00;98443.09;6313298;20;3625257;-41
2023/11/24 03:37:43;;;;;;;;;70.00;53.67;;;;;2.62;100.00;98433.00;6311567;20;3633671;-41
2023/11/24 03:40:14;;;;;;;;;65.33;50.00;;;;;2.60;100.00;98440.16;6313858;20;2876418;-39
2023/11/24 03:42:43;;;;;;;;;72.00;54.67;;;;;2.75;100.00;98430.59;6309216;20;3629420;-40
2023/11/24 03:45:13;;;;;;;;;77.00;56.67;;;;;2.61;100.00;98423.34;6312210;20;3644106;-40
2023/11/24 03:47:43;;;;;;;;;66.33;52.33;;;;;2.64;100.00;98413.44;6310642;20;2875484;-40
2023/11/24 03:50:13;;;;;;;;;75.67;55.00;;;;;2.85;100.00;98419.47;6314177;20;3649229;-40
2023/11/24 03:52:44;;;;;;;;;74.00;55.33;;;;;2.81;100.00;98411.72;6310127;20;3645133;-39
2023/11/24 03:55:13;;;;;;;;;70.67;54.33;;;;;3.01;100.00;98390.38;6313361;20;3622260;-39
2023/11/24 03:57:44;;;;;;;;;81.33;56.00;;;;;2.98;100.00;98376.44;6311704;20;3649354;-40
2023/11/24 04:00:14;;;;;;;;;70.00;54.00;;;;;2.92;100.00;98371.41;6313363;20;2871186;-39
2023/11/24 04:02:44;;;;;;;;;74.33;55.33;;;;;2.80;100.00;98349.94;6311853;20;3622134;-40
2023/11/24 04:05:14;;;;;;;;;74.00;57.00;;;;;2.97;100.00;98350.84;6310477;20;2879507;-41
2023/11/24 04:07:46;;;;;;;;;69.67;56.00;;;;;2.98;100.00;98344.63;6313013;20;3633599;-40
2023/11/24 04:10:15;;;;;;;;;58.50;46.00;;;;;3.02;100.00;98356.75;6311566;20;2857567;-40
2023/11/24 04:12:46;;;;;;;;;73.33;54.33;;;;;2.92;100.00;98340.47;6279327;20;3653440;-39
2023/11/24 04:15:16;;;;;;;;;70.00;52.00;;;;;2.94;100.00;98351.00;6310614;20;3643994;-40
2023/11/24 04:17:45;;;;;;;;;66.33;52.33;;;;;3.01;100.00;98363.84;6312150;20;2881557;-39
2023/11/24 04:20:14;;;;;;;;;65.00;51.00;;;;;2.72;100.00;98354.75;6308505;20;2855534;-39
2023/11/24 04:22:44;;;;;;;;;73.67;54.00;;;;;2.70;100.00;98335.44;6278148;20;2871140;-39
2023/11/24 04:25:14;;;;;;;;;62.67;47.33;;;;;2.95;100.00;98321.78;6309680;20;3631539;-39
2023/11/24 04:27:44;;;;;;;;;75.33;53.67;;;;;2.96;100.00;98318.16;6308694;20;3634826;-40
2023/11/24 04:30:14;;;;;;;;;75.00;55.67;;;;;3.00;100.00;98298.53;6311166;20;3647209;-39
2023/11/24 04:32:44;;;;;;;;;73.67;53.67;;;;;2.87;100.00;98305.41;6308361;20;3652354;-40
2023/11/24 04:35:14;;;;;;;;;70.00;54.00;;;;;2.93;100.00;98298.94;6309111;20;3630843;-39
2023/11/24 04:37:43;;;;;;;;;73.67;52.67;;;;;2.85;100.00;98292.22;6309961;20;3648157;-39
2023/11/24 04:40:14;;;;;;;;;75.00;55.33;;;;;2.73;100.00;98290.22;6310061;20;3638892;-40
2023/11/24 04:42:44;;;;;;;;;72.33;54.67;;;;;2.90;100.00;98283.16;6307125;20;2881346;-41
2023/11/24 04:45:14;;;;;;;;;75.33;58.00;;;;;2.91;100.00;98274.28;6310307;20;3640909;-39
2023/11/24 04:47:44;;;;;;;;;80.00;57.33;;;;;2.93;100.00;98261.81;6309618;20;3647129;-40
2023/11/24 04:50:14;;;;;;;;;63.00;47.00;;;;;2.95;100.00;98266.09;6308055;20;2860688;-40
2023/11/24 04:52:45;;;;;;;;;66.67;50.33;;;;;2.96;100.00;98251.03;6277729;20;2872292;-40
2023/11/24 04:55:15;;;;;;;;;74.67;58.00;;;;;2.82;100.00;98257.94;6311696;20;3637873;-41
2023/11/24 04:57:49;;;;;;;;;66.67;55.33;;;;;2.98;100.00;98259.78;6314891;20;2885841;-40
2023/11/24 05:00:19;;;;;;;;;57.50;46.00;;;;;2.81;100.00;98253.56;6316197;20;2851402;-40
2023/11/24 05:02:49;;;;;;;;;65.33;48.67;;;;;2.92;100.00;98247.69;6282725;20;2876545;-40
2023/11/24 05:05:19;;;;;;;;;68.00;52.33;;;;;2.98;100.00;98244.72;6314084;20;2874454;-41
2023/11/24 05:07:48;;;;;;;;;66.00;52.50;;;;;2.96;100.00;98243.09;6315699;20;2880060;-40
2023/11/24 05:10:17;;;;;;;;;70.67;49.67;;;;;3.03;100.00;98249.78;6283250;20;3625259;-41
2023/11/24 05:12:46;;;;;;;;;69.00;51.00;;;;;2.95;100.00;98244.91;6312964;20;2871171;-46
2023/11/24 05:15:16;;;;;;;;;73.67;51.33;;;;;2.82;100.00;98249.16;6281364;20;2890061;-49
2023/11/24 05:17:46;;;;;;;;;66.00;48.00;;;;;2.96;100.00;98240.44;6313612;20;2877543;-47
2023/11/24 05:20:18;;;;;;;;;69.33;55.33;;;;;2.97;100.00;98229.72;6316539;20;2885831;-47
2023/11/24 05:22:47;;;;;;;;;70.00;51.67;;;;;2.95;100.00;98228.09;6313027;20;3627403;-47
2023/11/24 05:25:17;;;;;;;;;64.67;47.00;;;;;3.07;100.00;98243.34;6312408;20;2878443;-47
2023/11/24 05:27:48;;;;;;;;;72.67;53.00;;;;;2.97;100.00;98236.84;6314697;20;3648599;-46
2023/11/24 05:30:18;;;;;;;;;68.33;50.67;;;;;3.10;100.00;98232.59;6313540;20;2875376;-46
2023/11/24 05:32:47;;;;;;;;;70.00;54.00;;;;;2.86;100.00;98232.97;6314780;20;2870132;-46
2023/11/24 05:35:17;;;;;;;;;70.67;46.67;;;;;2.98;100.00;98220.00;6313244;20;3633668;-46
2023/11/24 05:37:47;;;;;;;;;73.00;52.67;;;;;2.93;100.00;98222.91;6314829;20;2874383;-47
2023/11/24 05:40:16;;;;;;;;;69.00;52.33;;;;;2.80;100.00;98235.09;6314106;20;2879646;-47
2023/11/24 05:42:46;;;;;;;;;72.00;51.00;;;;;3.02;100.00;98245.41;6312895;20;3637812;-47
2023/11/24 05:45:16;;;;;;;;;66.33;48.67;;;;;3.19;100.00;98239.19;6313184;20;3635763;-48
2023/11/24 05:47:46;;;;;;;;;70.67;52.33;;;;;3.35;100.00;98245.38;6310228;20;3647147;-46
2023/11/24 05:50:22;;;;;;;;;65.33;50.00;;;;;3.33;100.00;98241.09;6314043;20;2878599;-48
2023/11/24 05:52:52;;;;;;;;;65.33;50.33;;;;;3.39;100.00;98228.31;6309854;20;2875463;-47
2023/11/24 05:55:21;;;;;;;;;62.50;48.50;;;;;3.33;100.00;98228.66;6314061;20;2867959;-47
2023/11/24 05:57:50;;;;;;;;;67.00;49.67;;;;;3.71;100.00;98213.25;6280020;20;2861794;-48
2023/11/24 06:00:20;;;;;;;;;67.67;52.33;;;;;3.28;100.00;98213.00;6314033;20;2872281;-46
2023/11/24 06:02:50;;;;;;;;;62.00;49.50;;;;;2.44;100.00;98211.41;6311735;20;2874277;-47
2023/11/24 06:05:19;;;;;;;;;67.00;51.33;;;;;2.53;100.00;98219.75;6277026;20;3620108;-48
2023/11/24 06:07:48;;;;;;;;;59.00;45.50;;;;;2.91;100.00;98210.69;6312799;20;2869131;-47
2023/11/24 06:10:22;;;;;;;;;66.50;51.50;;;;;2.57;100.00;98207.19;6282728;20;2867047;-47
2023/11/24 06:12:51;;;;;;;;;72.67;52.67;;;;;2.88;100.00;98210.84;6280200;20;3642992;-46
2023/11/24 06:15:21;;;;;;;;;72.33;54.33;;;;;2.93;100.00;98219.41;6313440;20;2869036;-49
2023/11/24 06:17:51;;;;;;;;;78.67;59.67;;;;;2.68;100.00;98209.25;6314035;20;3625169;-48
2023/11/24 06:20:21;;;;;;;;;70.00;54.33;;;;;2.91;100.00;98213.31;6313181;20;3626316;-49
2023/11/24 06:22:50;;;;;;;;;73.00;54.33;;;;;3.13;100.00;98205.88;6313556;20;3634738;-47
2023/11/24 06:25:20;;;;;;;;;69.00;52.67;;;;;3.02;100.00;98210.94;6314061;20;3635693;-49
2023/11/24 06:27:50;;;;;;;;;65.33;52.00;;;;;3.05;100.00;98197.50;6309046;20;2870128;-46
2023/11/24 06:30:20;;;;;;;;;66.33;51.00;;;;;2.96;100.00;98192.72;6312710;20;3629862;-47
2023/11/24 06:32:49;;;;;;;;;71.67;52.67;;;;;3.05;100.00;98171.00;6312397;20;3636788;-49
2023/11/24 06:35:19;;;;;;;;;63.00;43.67;;;;;2.75;100.00;98168.25;6312239;20;2879477;-47
2023/11/24 06:37:49;;;;;;;;;70.67;52.00;;;;;2.81;100.00;98168.75;6314548;20;3636835;-46
2023/11/24 06:40:19;;;;;;;;;67.33;52.00;;;;;3.01;100.00;98159.72;6311352;20;2867419;-48
2023/11/24 06:42:49;;;;;;;;;63.00;43.33;;;;;2.90;100.00;98151.50;6312876;20;2873455;-47
2023/11/24 06:45:18;;;;;;;;;66.00;51.50;;;;;3.17;100.00;98149.09;6313525;20;2869038;-47
2023/11/24 06:47:51;;;;;;;;;51.50;44.00;;;;;3.32;100.00;98155.34;6282727;20;2845071;-48
2023/11/24 06:50:20;;;;;;;;;68.33;52.33;;;;;3.78;100.00;98171.25;6274207;20;2881727;-46
2023/11/24 06:52:50;;;;;;;;;63.67;50.00;;;;;4.20;100.00;98171.47;6310389;20;2873227;-47
2023/11/24 06:55:20;;;;;;;;;72.00;51.33;;;;;4.75;100.00;98184.06;6312784;20;3639966;-47
2023/11/24 06:57:49;;;;;;;;;70.00;54.00;;;;;3.27;100.00;98179.47;6311761;20;3640912;-48
2023/11/24 07:00:20;;;;;;;;;67.67;48.33;;;;;3.52;100.00;98180.72;6312344;20;2898446;-51
2023/11/24 07:02:50;;;;;;;;;65.00;51.67;;;;;3.95;100.00;98204.81;6312435;20;3623279;-46
2023/11/24 07:05:20;;;;;;;;;73.67;51.67;;;;;3.85;100.00;98212.44;6313769;20;3635740;-47
2023/11/24 07:07:49;;;;;;;;;75.00;54.00;;;;;3.51;100.00;98189.63;6311154;20;3651435;-48
2023/11/24 07:10:22;;;;;;;;;59.33;46.33;;;;;3.73;100.00;98203.38;6311790;20;2873337;-47
2023/11/24 07:12:52;;;;;;;;;71.67;53.33;;;;;3.63;100.00;98196.88;6309660;20;3634634;-47
2023/11/24 07:15:22;;;;;;;;;124.67;114.67;;;;;3.51;100.00;98189.63;6309065;20;3708788;-49
2023/11/24 07:17:52;;;;;;;;;71.00;52.33;;;;;3.99;100.00;98195.69;6269910;20;2894142;-47
2023/11/24 07:20:21;;;;;;;;;63.00;45.00;;;;;4.10;100.00;98206.53;6310691;20;2859796;-48
2023/11/24 07:22:51;;;;;;;;;73.33;52.67;;;;;4.28;100.00;98211.72;6307660;20;3655486;-47
2023/11/24 07:25:21;;;;;;;;;62.67;48.00;;;;;3.98;100.00;98199.31;6310568;20;2874505;-46
2023/11/24 07:27:50;;;;;;;;;64.33;50.33;;;;;3.98;100.00;98201.97;6310142;20;3609701;-49
2023/11/24 07:30:22;;;;;;;;;75.33;57.00;;;;;4.44;100.00;98223.13;6313127;20;2883695;-48
2023/11/24 07:32:52;;;;;;;;;68.67;52.67;;;;;4.32;100.00;98227.38;6307018;20;3644123;-49
2023/11/24 07:35:23;;;;;;;;;65.67;49.00;;;;;4.52;100.00;98215.53;6310129;20;3633642;-46
2023/11/24 07:37:52;;;;;;;;;68.67;51.67;;;;;4.37;100.00;98208.50;6312541;20;3640908;-46
2023/11/24 07:40:22;;;;;;;;;63.00;50.00;;;;;4.53;100.00;98216.38;6311144;20;2872291;-49
2023/11/24 07:42:52;;;;;;;;;68.00;50.00;;;;;4.23;100.00;98211.97;6309696;20;3637776;-46
2023/11/24 07:45:21;;;;;;;;;64.67;50.00;;;;;4.22;100.00;98207.63;6311795;20;2878582;-47
2023/11/24 07:47:51;;;;;;;;;64.33;45.00;;;;;4.09;100.00;98212.81;6309622;20;3645121;-48
2023/11/24 07:50:21;;;;;;;;;70.67;52.33;;;;;4.11;100.00;98220.69;6304702;20;3645084;-49
2023/11/24 07:52:51;;;;;;;;;65.67;51.67;;;;;4.12;100.00;98225.91;6308637;20;2871408;-48
2023/11/24 07:55:24;;;;;;;;;70.33;51.33;;;;;4.20;100.00;98219.28;6308063;20;3630480;-47
2023/11/24 07:57:54;;;;;;;;;57.00;48.67;;;;;4.20;100.00;98221.94;6311121;20;2868038;-47
2023/11/24 08:00:24;;;;;;;;;71.00;56.00;;;;;4.34;100.00;98216.66;6309542;20;2877467;-47
2023/11/24 08:02:53;;;;;;;;;71.67;52.67;;;;;4.58;100.00;98215.19;6308950;20;3650355;-48
2023/11/24 08:05:23;;;;;;;;;67.33;51.33;;;;;4.37;100.00;98213.81;6309838;20;3630483;-47
2023/11/24 08:07:53;;;;;;;;;67.33;51.67;;;;;4.52;100.00;98210.22;6308996;20;3639924;-47
2023/11/24 08:10:23;;;;;;;;;65.33;50.33;;;;;4.78;100.00;98208.63;6310211;20;2878455;-48
2023/11/24 08:12:51;;;;;;;;;58.67;45.00;;;;;4.93;100.00;98211.31;6311627;20;3594170;-50
2023/11/24 08:15:20;;;;;;;;;56.00;44.50;;;;;5.26;100.00;98195.84;6280071;20;2856633;-49
2023/11/24 08:17:50;;;;;;;;;61.00;44.00;;;;;5.34;100.00;98218.47;6278603;20;3634749;-47
2023/11/24 08:20:20;;;;;;;;;55.50;43.50;;;;;5.44;100.00;98215.13;6309122;20;2849429;-47
2023/11/24 08:22:49;;;;;;;;;53.50;40.50;;;;;5.59;100.00;98217.75;6275621;20;2853448;-44
2023/11/24 08:25:19;;;;;;;;;53.67;42.00;;;;;5.65;100.00;98218.19;6279591;20;2863980;-47
2023/11/24 08:27:48;;;;;;;;;46.00;36.00;;;;;5.87;100.00;98217.66;6311930;20;3624318;-49
2023/11/24 08:30:18;;;;;;;;;59.00;46.00;;;;;5.85;100.00;98211.56;6322514;20;3614918;-48
2023/11/24 08:32:49;;;;;;;;;61.67;44.67;;;;;5.79;100.00;98219.94;6321329;20;2888949;-45
2023/11/24 08:35:18;;;;;;;;;56.00;45.00;;;;;5.83;100.00;98224.13;6323066;20;2848189;-48
2023/11/24 08:37:48;;;;;;;;;58.00;42.33;;;;;5.90;100.00;98222.78;6290699;20;2881646;-49
2023/11/24 08:40:17;;;;;;;;;53.00;43.00;;;;;6.06;100.00;98217.31;6323618;20;2849230;-47
2023/11/24 08:42:47;;;;;;;;;48.00;40.00;;;;;6.01;100.00;98218.59;6289000;20;2562926;-48
2023/11/24 08:45:17;;;;;;;;;48.33;36.67;;;;;6.28;100.00;98206.06;6323553;20;3603368;-51
2023/11/24 08:47:48;;;;;;;;;51.00;42.00;;;;;6.50;100.00;98205.47;6322190;20;2850287;-48
2023/11/24 08:50:18;;;;;;;;;54.67;37.33;;;;;6.55;100.00;98197.97;6292813;20;3637863;-46
2023/11/24 08:52:48;;;;;;;;;37.00;32.33;;;;;6.95;100.00;98200.53;6318699;20;2858877;-48
2023/11/24 08:55:17;;;;;;;;;45.33;34.67;;;;;7.20;100.00;98188.97;6326674;20;3633574;-51
2023/11/24 08:57:47;;;;;;;;;38.67;30.33;;;;;7.54;99.90;98197.19;6291622;20;3605469;-46
2023/11/24 09:00:16;;;;;;;;;35.00;29.50;;;;;7.57;98.87;98196.97;6322638;20;2860733;-46
2023/11/24 09:02:47;;;;;;;;;43.67;34.33;;;;;7.76;98.23;98206.28;6288276;20;2868105;-46
2023/11/24 09:05:17;;;;;;;;;32.33;28.33;;;;;7.78;98.06;98183.84;6322338;20;2860684;-47
2023/11/24 09:07:46;;;;;;;;;29.50;23.00;;;;;7.89;96.27;98177.69;6322720;20;2835722;-51
2023/11/24 09:10:14;;;;;;;;;28.33;26.00;;;;;7.97;94.62;98159.25;6290011;20;2500973;-49
2023/11/24 09:12:44;;;;;;;;;27.50;25.00;;;;;8.21;92.59;98137.81;6321703;20;2837782;-51
2023/11/24 09:15:13;;;;;;;;;27.00;22.50;;;;;8.52;90.22;98139.00;6290862;20;2844088;-52
2023/11/24 09:17:41;;;;;;;;;20.00;16.33;;;;;8.88;87.32;98134.44;6290280;20;3553429;-48
2023/11/24 09:20:16;;;;;;;;;15.80;13.80;;;;;9.07;86.25;98136.47;6318905;20;2810759;-47
2023/11/24 09:22:45;;;;;;;;;12.00;12.00;;;;;9.19;84.47;98121.25;6292836;20;2790399;-49
2023/11/24 09:25:15;;;;;;;;;13.67;11.67;;;;;9.04;84.17;98119.81;6290067;20;2783800;-43
2023/11/24 09:27:45;;;;;;;;;13.67;13.67;;;;;8.85;85.40;98107.91;6321656;20;2795237;-43
2023/11/24 09:30:14;;;;;;;;;20.33;17.00;;;;;8.88;85.47;98113.00;6319915;20;3547237;-47
2023/11/24 09:32:43;;;;;;;;;21.50;19.00;;;;;9.15;85.47;98111.75;6288032;20;2498206;-44
2023/11/24 09:35:12;;;;;;;;;24.00;24.00;;;;;8.66;86.82;98094.28;6291063;20;2850742;-43
2023/11/24 09:37:42;;;;;;;;;34.00;26.67;;;;;9.27;85.46;98089.34;6291179;20;2858768;-43
2023/11/24 09:40:16;;;;;;;;;27.00;25.00;;;;;9.63;83.54;98090.78;6317794;20;2836771;-43
2023/11/24 09:42:47;;;;;;;;;36.33;31.00;;;;;10.00;82.96;98092.22;6282690;20;3612784;-44
2023/11/24 09:45:21;;;;;;;;;29.00;22.00;;;;;10.21;79.31;98094.91;6315713;20;2837920;-45
2023/11/24 09:47:51;;;;;;;;;11.00;8.50;;;;;10.46;72.21;98093.69;6291416;20;2754444;-44
2023/11/24 09:50:25;;;;;;;;;5.00;2.00;;;;;10.21;66.70;98079.66;6287800;20;2756565;-45
2023/11/24 09:52:58;;;;;;;;;2.50;1.50;;;;;10.55;63.82;98076.75;6302997;20;1803542;-45
2023/11/24 09:55:30;;;;;;;;;2.00;2.00;;;;;10.48;60.26;98075.63;6322124;20;2720190;-46
2023/11/24 09:57:58;;;;;;;;;2.50;2.50;;;;;11.12;59.13;98069.91;6287185;20;2754517;-46
2023/11/24 10:00:26;;;;;;;;;2.00;2.00;;;;;10.90;58.31;98059.38;6290839;20;2735837;-43
2023/11/24 10:03:02;;;;;;;;;1.00;1.00;;;;;10.57;58.53;98072.13;6303272;20;1807519;-46
2023/11/24 10:05:30;;;;;;;;;2.00;2.00;;;;;10.09;58.22;98068.16;6321364;20;2746136;-49
2023/11/24 10:08:00;;;;;;;;;1.00;0.00;;;;;10.02;57.73;98063.44;6303196;20;1799397;-42
2023/11/24 10:10:29;;;;;;;;;0.75;0.75;;;;;10.16;60.25;98060.41;6335803;20;1805473;-42
2023/11/24 10:13:01;;;;;;;;;6.00;5.00;;;;;10.54;57.52;98040.19;6312599;20;2748284;-42
2023/11/24 10:15:30;;;;;;;;;4.00;4.00;;;;;10.42;60.64;98051.97;6287783;20;2739929;-41
2023/11/24 10:17:59;;;;;;;;;7.50;6.00;;;;;10.16;59.75;98055.06;6284425;20;2752387;-41
2023/11/24 10:20:30;;;;;;;;;3.50;3.50;;;;;10.61;59.07;98052.09;6288083;20;2751303;-42
2023/11/24 10:23:01;;;;;;;;;6.00;4.00;;;;;10.28;58.74;98037.09;6282937;20;2747164;-42
2023/11/24 10:25:29;;;;;;;;;3.00;3.00;;;;;10.74;55.97;98039.28;6287809;20;2743034;-40
2023/11/24 10:28:00;;;;;;;;;0.75;0.00;;;;;10.55;55.86;98023.94;6300873;20;1803535;-44
2023/11/24 10:30:28;;;;;;;;;3.00;3.00;;;;;11.01;54.42;98010.94;6317883;20;2754473;-41
2023/11/24 10:32:58;;;;;;;;;0.00;0.00;;;;;10.48;55.65;97997.81;6303385;20;1805958;-41
2023/11/24 10:35:26;;;;;;;;;0.50;0.50;;;;;10.77;54.89;98001.41;6319002;20;2728556;-41
2023/11/24 10:37:57;;;;;;;;;1.33;1.00;;;;;11.08;53.74;98006.69;6281244;20;3463901;-42
2023/11/24 10:40:27;;;;;;;;;0.00;0.00;;;;;10.93;53.74;97994.69;6286911;20;2731534;-46
2023/11/24 10:42:57;;;;;;;;;0.50;0.50;;;;;10.58;55.83;97995.97;6298231;20;1802510;-41
2023/11/24 10:45:30;;;;;;;;;0.00;0.00;;;;;10.22;56.91;97968.72;6333372;20;1805492;-42
2023/11/24 10:48:15;;;;;;;;;0.00;0.00;;;;;9.96;58.08;97967.47;6335548;20;1802462;-42
2023/11/24 10:51:01;;;;;;;;;0.00;0.00;;;;;9.86;58.85;97952.16;6330853;20;1801403;-42
2023/11/24 10:53:36;;;;;;;;;1.50;1.00;;;;;10.10;58.57;97948.31;6334861;20;1799354;-41
2023/11/24 10:56:09;;;;;;;;;4.00;3.00;;;;;9.73;59.28;97946.16;6316812;20;2744069;-41
2023/11/24 10:58:37;;;;;;;;;7.00;4.00;;;;;9.94;60.03;97947.97;6281857;20;2744114;-42
2023/11/24 11:01:06;;;;;;;;;3.00;3.00;;;;;9.73;61.21;97935.44;6285188;20;2744035;-43
2023/11/24 11:03:36;;;;;;;;;4.00;1.00;;;;;9.44;62.06;97937.94;6288532;20;2729436;-48
2023/11/24 11:06:41;;;;;;;;;5.00;4.00;;;;;9.32;62.20;97947.88;6284555;20;2746150;-47
2023/11/24 11:12:29;;;;;;;;;8.00;6.00;;;;;9.39;62.84;97962.44;6339634;20;2743138;-46
2023/11/24 11:14:59;;;;;;;;;1.00;1.00;;;;;9.38;62.10;97966.09;6333008;20;1809768;-43
2023/11/24 11:17:28;;;;;;;;;4.25;1.75;;;;;9.25;62.55;97962.75;6331165;20;1805580;-43
2023/11/24 11:20:15;;;;;;;;;1.50;1.50;;;;;9.43;61.79;97961.19;6316720;20;2735716;-43